sensor_id;sensor_type;location;lat;lon;timestamp;temperature;humidity
22526;DHT22;11429;50.842;4.386;2022-08-21T00:00:32;19.00;99.90
22526;DHT22;11429;50.842;4.386;2022-08-21T00:03:02;19.00;99.90
22526;DHT22;11429;50.842;4.386;2022-08-21T00:05:30;19.10;99.90
22526;DHT22;11429;50.842;4.386;2022-08-21T00:07:57;19.00;99.90
22526;DHT22;11429;50.842;4.386;2022-08-21T00:10:24;18.90;99.90
22526;DHT22;11429;50.842;4.386;2022-08-21T00:12:50;18.90;99.90
22526;DHT22;11429;50.842;4.386;2022-08-21T00:15:20;18.80;99.90
22526;DHT22;11429;50.842;4.386;2022-08-21T00:17:47;18.70;99.90
22526;DHT22;11429;50.842;4.386;2022-08-21T00:20:14;18.70;99.90
22526;DHT22;11429;50.842;4.386;2022-08-21T00:22:41;18.60;99.90
22526;DHT22;11429;50.842;4.386;2022-08-21T00:25:08;18.60;99.90
22526;DHT22;11429;50.842;4.386;2022-08-21T00:27:34;18.50;99.90
22526;DHT22;11429;50.842;4.386;2022-08-21T00:30:00;18.50;99.90
22526;DHT22;11429;50.842;4.386;2022-08-21T00:32:27;18.30;99.90
22526;DHT22;11429;50.842;4.386;2022-08-21T00:34:53;18.40;99.90
22526;DHT22;11429;50.842;4.386;2022-08-21T00:37:20;18.30;99.90
22526;DHT22;11429;50.842;4.386;2022-08-21T00:39:46;18.50;99.90
22526;DHT22;11429;50.842;4.386;2022-08-21T00:42:13;18.40;99.90
22526;DHT22;11429;50.842;4.386;2022-08-21T00:44:46;18.20;99.90
22526;DHT22;11429;50.842;4.386;2022-08-21T00:47:12;18.10;99.90
22526;DHT22;11429;50.842;4.386;2022-08-21T00:49:39;18.10;99.90
22526;DHT22;11429;50.842;4.386;2022-08-21T00:52:08;18.00;99.90
22526;DHT22;11429;50.842;4.386;2022-08-21T00:54:35;18.10;99.90
22526;DHT22;11429;50.842;4.386;2022-08-21T00:57:07;18.10;99.90
22526;DHT22;11429;50.842;4.386;2022-08-21T00:59:37;18.20;99.90
22526;DHT22;11429;50.842;4.386;2022-08-21T01:02:05;18.10;99.90
22526;DHT22;11429;50.842;4.386;2022-08-21T01:04:33;17.90;99.90
22526;DHT22;11429;50.842;4.386;2022-08-21T01:06:58;18.00;99.90
22526;DHT22;11429;50.842;4.386;2022-08-21T01:09:24;18.00;99.90
22526;DHT22;11429;50.842;4.386;2022-08-21T01:11:50;18.20;99.90
22526;DHT22;11429;50.842;4.386;2022-08-21T01:14:18;18.00;99.90
22526;DHT22;11429;50.842;4.386;2022-08-21T01:16:46;18.10;99.90
22526;DHT22;11429;50.842;4.386;2022-08-21T01:19:13;18.00;99.90
22526;DHT22;11429;50.842;4.386;2022-08-21T01:21:39;17.80;99.90
22526;DHT22;11429;50.842;4.386;2022-08-21T01:24:05;17.80;99.90
22526;DHT22;11429;50.842;4.386;2022-08-21T01:26:34;17.60;99.90
22526;DHT22;11429;50.842;4.386;2022-08-21T01:31:31;17.60;99.90
22526;DHT22;11429;50.842;4.386;2022-08-21T01:33:58;17.70;99.90
22526;DHT22;11429;50.842;4.386;2022-08-21T01:36:26;17.60;99.90
22526;DHT22;11429;50.842;4.386;2022-08-21T01:38:51;17.60;99.90
22526;DHT22;11429;50.842;4.386;2022-08-21T01:41:17;17.80;99.90
22526;DHT22;11429;50.842;4.386;2022-08-21T01:43:44;17.90;99.90
22526;DHT22;11429;50.842;4.386;2022-08-21T01:46:11;17.70;99.90
22526;DHT22;11429;50.842;4.386;2022-08-21T01:48:37;17.60;99.90
22526;DHT22;11429;50.842;4.386;2022-08-21T01:51:05;17.60;99.90
22526;DHT22;11429;50.842;4.386;2022-08-21T01:53:31;17.60;99.90
22526;DHT22;11429;50.842;4.386;2022-08-21T01:55:59;17.70;99.90
22526;DHT22;11429;50.842;4.386;2022-08-21T01:58:25;17.50;99.90
22526;DHT22;11429;50.842;4.386;2022-08-21T02:00:51;17.60;99.90
22526;DHT22;11429;50.842;4.386;2022-08-21T02:03:16;17.80;99.90
22526;DHT22;11429;50.842;4.386;2022-08-21T02:05:42;17.80;99.90
22526;DHT22;11429;50.842;4.386;2022-08-21T02:08:08;17.70;99.90
22526;DHT22;11429;50.842;4.386;2022-08-21T02:10:33;17.70;99.90
22526;DHT22;11429;50.842;4.386;2022-08-21T02:13:00;17.80;99.90
22526;DHT22;11429;50.842;4.386;2022-08-21T02:15:27;17.90;99.90
22526;DHT22;11429;50.842;4.386;2022-08-21T02:17:58;17.50;99.90
22526;DHT22;11429;50.842;4.386;2022-08-21T02:20:28;17.40;99.90
22526;DHT22;11429;50.842;4.386;2022-08-21T02:22:54;17.40;99.90
22526;DHT22;11429;50.842;4.386;2022-08-21T02:25:21;17.20;99.90
22526;DHT22;11429;50.842;4.386;2022-08-21T02:27:48;17.40;99.90
22526;DHT22;11429;50.842;4.386;2022-08-21T02:30:26;17.30;99.90
22526;DHT22;11429;50.842;4.386;2022-08-21T02:32:52;17.20;99.90
22526;DHT22;11429;50.842;4.386;2022-08-21T02:35:18;17.30;99.90
22526;DHT22;11429;50.842;4.386;2022-08-21T02:37:53;17.30;99.90
22526;DHT22;11429;50.842;4.386;2022-08-21T02:40:23;17.10;99.90
22526;DHT22;11429;50.842;4.386;2022-08-21T02:42:49;17.20;99.90
22526;DHT22;11429;50.842;4.386;2022-08-21T02:45:16;17.40;99.90
22526;DHT22;11429;50.842;4.386;2022-08-21T02:47:55;17.30;99.90
22526;DHT22;11429;50.842;4.386;2022-08-21T02:50:24;17.20;99.90
22526;DHT22;11429;50.842;4.386;2022-08-21T02:52:50;17.40;99.90
22526;DHT22;11429;50.842;4.386;2022-08-21T02:55:19;17.50;99.90
22526;DHT22;11429;50.842;4.386;2022-08-21T02:57:46;17.60;99.90
22526;DHT22;11429;50.842;4.386;2022-08-21T03:00:13;17.30;99.90
22526;DHT22;11429;50.842;4.386;2022-08-21T03:02:39;17.50;99.90
22526;DHT22;11429;50.842;4.386;2022-08-21T03:05:07;17.30;99.90
22526;DHT22;11429;50.842;4.386;2022-08-21T03:07:32;17.20;99.90
22526;DHT22;11429;50.842;4.386;2022-08-21T03:10:00;17.40;99.90
22526;DHT22;11429;50.842;4.386;2022-08-21T03:12:25;17.30;99.90
22526;DHT22;11429;50.842;4.386;2022-08-21T03:14:51;17.40;99.90
22526;DHT22;11429;50.842;4.386;2022-08-21T03:17:16;17.50;99.90
22526;DHT22;11429;50.842;4.386;2022-08-21T03:19:42;17.50;99.90
22526;DHT22;11429;50.842;4.386;2022-08-21T03:22:08;17.50;99.90
22526;DHT22;11429;50.842;4.386;2022-08-21T03:24:34;17.30;99.90
22526;DHT22;11429;50.842;4.386;2022-08-21T03:26:59;17.00;99.90
22526;DHT22;11429;50.842;4.386;2022-08-21T03:29:25;16.90;99.90
22526;DHT22;11429;50.842;4.386;2022-08-21T03:31:51;16.80;99.90
22526;DHT22;11429;50.842;4.386;2022-08-21T03:34:19;16.70;99.90
22526;DHT22;11429;50.842;4.386;2022-08-21T03:36:45;16.70;99.90
22526;DHT22;11429;50.842;4.386;2022-08-21T03:39:10;16.90;99.90
22526;DHT22;11429;50.842;4.386;2022-08-21T03:41:36;17.10;99.90
22526;DHT22;11429;50.842;4.386;2022-08-21T03:44:02;16.90;99.90
22526;DHT22;11429;50.842;4.386;2022-08-21T03:46:28;16.90;99.90
22526;DHT22;11429;50.842;4.386;2022-08-21T03:48:53;16.80;99.90
22526;DHT22;11429;50.842;4.386;2022-08-21T03:51:20;16.90;99.90
22526;DHT22;11429;50.842;4.386;2022-08-21T03:53:45;16.70;99.90
22526;DHT22;11429;50.842;4.386;2022-08-21T03:56:11;16.90;99.90
22526;DHT22;11429;50.842;4.386;2022-08-21T03:58:37;16.90;99.90
22526;DHT22;11429;50.842;4.386;2022-08-21T04:01:04;16.90;99.90
22526;DHT22;11429;50.842;4.386;2022-08-21T04:03:34;17.10;99.90
22526;DHT22;11429;50.842;4.386;2022-08-21T04:06:00;17.20;99.90
22526;DHT22;11429;50.842;4.386;2022-08-21T04:08:26;17.20;99.90
22526;DHT22;11429;50.842;4.386;2022-08-21T04:10:54;17.30;99.90
22526;DHT22;11429;50.842;4.386;2022-08-21T04:13:21;17.20;99.90
22526;DHT22;11429;50.842;4.386;2022-08-21T04:15:47;17.20;99.90
22526;DHT22;11429;50.842;4.386;2022-08-21T04:18:13;17.40;99.90
22526;DHT22;11429;50.842;4.386;2022-08-21T04:20:41;17.20;99.90
22526;DHT22;11429;50.842;4.386;2022-08-21T04:23:07;17.20;99.90
22526;DHT22;11429;50.842;4.386;2022-08-21T04:25:33;16.90;99.90
22526;DHT22;11429;50.842;4.386;2022-08-21T04:27:59;16.70;99.90
22526;DHT22;11429;50.842;4.386;2022-08-21T04:30:27;17.00;99.90
22526;DHT22;11429;50.842;4.386;2022-08-21T04:32:53;16.90;99.90
22526;DHT22;11429;50.842;4.386;2022-08-21T04:35:21;16.60;99.90
22526;DHT22;11429;50.842;4.386;2022-08-21T04:37:48;16.60;99.90
22526;DHT22;11429;50.842;4.386;2022-08-21T04:40:16;16.60;99.90
22526;DHT22;11429;50.842;4.386;2022-08-21T04:42:44;16.40;99.90
22526;DHT22;11429;50.842;4.386;2022-08-21T04:45:27;16.30;99.90
22526;DHT22;11429;50.842;4.386;2022-08-21T04:47:55;16.40;99.90
22526;DHT22;11429;50.842;4.386;2022-08-21T04:50:36;16.50;99.90
22526;DHT22;11429;50.842;4.386;2022-08-21T04:53:12;16.60;99.90
22526;DHT22;11429;50.842;4.386;2022-08-21T04:55:39;16.60;99.90
22526;DHT22;11429;50.842;4.386;2022-08-21T04:58:08;16.80;99.90
22526;DHT22;11429;50.842;4.386;2022-08-21T05:00:35;16.60;99.90
22526;DHT22;11429;50.842;4.386;2022-08-21T05:03:01;17.00;99.90
22526;DHT22;11429;50.842;4.386;2022-08-21T05:05:28;16.80;99.90
22526;DHT22;11429;50.842;4.386;2022-08-21T05:07:55;16.80;99.90
22526;DHT22;11429;50.842;4.386;2022-08-21T05:10:22;16.90;99.90
22526;DHT22;11429;50.842;4.386;2022-08-21T05:12:48;16.90;99.90
22526;DHT22;11429;50.842;4.386;2022-08-21T05:15:14;16.90;99.90
22526;DHT22;11429;50.842;4.386;2022-08-21T05:17:42;17.00;99.90
22526;DHT22;11429;50.842;4.386;2022-08-21T05:20:13;17.00;99.90
22526;DHT22;11429;50.842;4.386;2022-08-21T05:22:39;17.30;99.90
22526;DHT22;11429;50.842;4.386;2022-08-21T05:25:06;17.40;99.90
22526;DHT22;11429;50.842;4.386;2022-08-21T05:27:32;17.20;99.90
22526;DHT22;11429;50.842;4.386;2022-08-21T05:29:58;17.10;99.90
22526;DHT22;11429;50.842;4.386;2022-08-21T05:32:24;17.20;99.90
22526;DHT22;11429;50.842;4.386;2022-08-21T05:34:50;17.30;99.90
22526;DHT22;11429;50.842;4.386;2022-08-21T05:37:16;17.20;99.90
22526;DHT22;11429;50.842;4.386;2022-08-21T05:39:41;17.20;99.90
22526;DHT22;11429;50.842;4.386;2022-08-21T05:42:07;17.20;99.90
22526;DHT22;11429;50.842;4.386;2022-08-21T05:44:33;17.30;99.90
22526;DHT22;11429;50.842;4.386;2022-08-21T05:47:07;17.40;99.90
22526;DHT22;11429;50.842;4.386;2022-08-21T05:49:33;17.70;99.90
22526;DHT22;11429;50.842;4.386;2022-08-21T05:51:59;18.10;99.90
22526;DHT22;11429;50.842;4.386;2022-08-21T05:54:25;18.80;99.90
22526;DHT22;11429;50.842;4.386;2022-08-21T05:56:51;20.50;99.90
22526;DHT22;11429;50.842;4.386;2022-08-21T05:59:17;22.10;99.90
22526;DHT22;11429;50.842;4.386;2022-08-21T06:01:43;23.00;99.90
22526;DHT22;11429;50.842;4.386;2022-08-21T06:04:10;24.10;99.90
22526;DHT22;11429;50.842;4.386;2022-08-21T06:06:36;25.40;99.90
22526;DHT22;11429;50.842;4.386;2022-08-21T06:09:02;25.20;99.90
22526;DHT22;11429;50.842;4.386;2022-08-21T06:11:28;27.20;99.90
22526;DHT22;11429;50.842;4.386;2022-08-21T06:13:54;28.70;99.90
22526;DHT22;11429;50.842;4.386;2022-08-21T06:16:19;28.90;99.90
22526;DHT22;11429;50.842;4.386;2022-08-21T06:18:45;29.20;99.90
22526;DHT22;11429;50.842;4.386;2022-08-21T06:21:11;29.20;99.90
22526;DHT22;11429;50.842;4.386;2022-08-21T06:23:38;28.90;99.90
22526;DHT22;11429;50.842;4.386;2022-08-21T06:26:06;28.90;99.90
22526;DHT22;11429;50.842;4.386;2022-08-21T06:28:33;28.30;99.90
22526;DHT22;11429;50.842;4.386;2022-08-21T06:30:58;28.60;99.90
22526;DHT22;11429;50.842;4.386;2022-08-21T06:33:24;28.60;99.90
22526;DHT22;11429;50.842;4.386;2022-08-21T06:35:50;29.80;99.90
22526;DHT22;11429;50.842;4.386;2022-08-21T06:38:16;29.50;99.90
22526;DHT22;11429;50.842;4.386;2022-08-21T06:40:42;29.60;99.90
22526;DHT22;11429;50.842;4.386;2022-08-21T06:43:11;29.20;99.90
22526;DHT22;11429;50.842;4.386;2022-08-21T06:45:37;28.50;99.90
22526;DHT22;11429;50.842;4.386;2022-08-21T06:48:04;28.10;99.90
22526;DHT22;11429;50.842;4.386;2022-08-21T06:50:29;28.10;99.90
22526;DHT22;11429;50.842;4.386;2022-08-21T06:53:05;27.50;99.90
22526;DHT22;11429;50.842;4.386;2022-08-21T06:55:31;26.60;99.90
22526;DHT22;11429;50.842;4.386;2022-08-21T06:57:57;27.80;99.90
22526;DHT22;11429;50.842;4.386;2022-08-21T07:00:23;28.60;99.90
22526;DHT22;11429;50.842;4.386;2022-08-21T07:02:49;29.00;99.90
22526;DHT22;11429;50.842;4.386;2022-08-21T07:05:15;29.30;99.90
22526;DHT22;11429;50.842;4.386;2022-08-21T07:07:41;29.40;99.90
22526;DHT22;11429;50.842;4.386;2022-08-21T07:10:07;31.00;99.20
22526;DHT22;11429;50.842;4.386;2022-08-21T07:12:33;31.70;98.30
22526;DHT22;11429;50.842;4.386;2022-08-21T07:14:58;30.60;99.00
22526;DHT22;11429;50.842;4.386;2022-08-21T07:17:24;31.60;98.30
22526;DHT22;11429;50.842;4.386;2022-08-21T07:19:50;32.00;97.40
22526;DHT22;11429;50.842;4.386;2022-08-21T07:22:18;30.00;99.20
22526;DHT22;11429;50.842;4.386;2022-08-21T07:24:44;27.60;99.90
22526;DHT22;11429;50.842;4.386;2022-08-21T07:27:10;25.40;99.90
22526;DHT22;11429;50.842;4.386;2022-08-21T07:29:36;24.60;99.90
22526;DHT22;11429;50.842;4.386;2022-08-21T07:32:02;24.40;99.90
22526;DHT22;11429;50.842;4.386;2022-08-21T07:34:28;24.00;99.90
22526;DHT22;11429;50.842;4.386;2022-08-21T07:36:54;23.40;99.90
22526;DHT22;11429;50.842;4.386;2022-08-21T07:39:19;23.40;99.90
22526;DHT22;11429;50.842;4.386;2022-08-21T07:41:45;23.00;99.90
22526;DHT22;11429;50.842;4.386;2022-08-21T07:44:11;22.60;99.90
22526;DHT22;11429;50.842;4.386;2022-08-21T07:46:36;22.80;99.90
22526;DHT22;11429;50.842;4.386;2022-08-21T07:49:02;23.00;99.90
22526;DHT22;11429;50.842;4.386;2022-08-21T07:51:28;23.10;99.90
22526;DHT22;11429;50.842;4.386;2022-08-21T07:53:56;22.50;99.90
22526;DHT22;11429;50.842;4.386;2022-08-21T07:56:22;22.20;99.90
22526;DHT22;11429;50.842;4.386;2022-08-21T07:58:48;22.80;99.90
22526;DHT22;11429;50.842;4.386;2022-08-21T08:01:14;23.00;99.90
22526;DHT22;11429;50.842;4.386;2022-08-21T08:03:40;22.80;99.90
22526;DHT22;11429;50.842;4.386;2022-08-21T08:06:07;23.00;99.90
22526;DHT22;11429;50.842;4.386;2022-08-21T08:08:41;23.20;99.90
22526;DHT22;11429;50.842;4.386;2022-08-21T08:11:09;22.80;99.90
22526;DHT22;11429;50.842;4.386;2022-08-21T08:13:42;22.80;99.90
22526;DHT22;11429;50.842;4.386;2022-08-21T08:16:08;22.80;99.90
22526;DHT22;11429;50.842;4.386;2022-08-21T08:18:33;22.50;99.90
22526;DHT22;11429;50.842;4.386;2022-08-21T08:20:59;22.40;99.90
22526;DHT22;11429;50.842;4.386;2022-08-21T08:23:25;22.50;99.90
22526;DHT22;11429;50.842;4.386;2022-08-21T08:25:51;22.80;99.90
22526;DHT22;11429;50.842;4.386;2022-08-21T08:28:17;22.40;99.90
22526;DHT22;11429;50.842;4.386;2022-08-21T08:30:43;22.20;99.90
22526;DHT22;11429;50.842;4.386;2022-08-21T08:33:09;22.20;99.90
22526;DHT22;11429;50.842;4.386;2022-08-21T08:35:35;22.30;99.90
22526;DHT22;11429;50.842;4.386;2022-08-21T08:38:01;22.80;99.90
22526;DHT22;11429;50.842;4.386;2022-08-21T08:40:41;22.90;99.90
22526;DHT22;11429;50.842;4.386;2022-08-21T08:43:09;23.10;99.90
22526;DHT22;11429;50.842;4.386;2022-08-21T08:45:37;23.30;99.90
22526;DHT22;11429;50.842;4.386;2022-08-21T08:48:08;23.00;99.90
22526;DHT22;11429;50.842;4.386;2022-08-21T08:56:04;23.00;99.90
22526;DHT22;11429;50.842;4.386;2022-08-21T08:58:35;22.90;99.90
22526;DHT22;11429;50.842;4.386;2022-08-21T09:01:08;23.00;99.90
22526;DHT22;11429;50.842;4.386;2022-08-21T09:03:38;23.40;99.90
22526;DHT22;11429;50.842;4.386;2022-08-21T09:08:58;22.80;99.90
22526;DHT22;11429;50.842;4.386;2022-08-21T09:23:18;24.70;99.90
22526;DHT22;11429;50.842;4.386;2022-08-21T09:26:16;25.90;99.90
22526;DHT22;11429;50.842;4.386;2022-08-21T09:28:42;28.90;99.90
22526;DHT22;11429;50.842;4.386;2022-08-21T09:31:32;28.80;99.90
22526;DHT22;11429;50.842;4.386;2022-08-21T09:34:04;29.30;99.90
22526;DHT22;11429;50.842;4.386;2022-08-21T09:36:49;28.90;99.90
22526;DHT22;11429;50.842;4.386;2022-08-21T09:39:38;29.90;99.90
22526;DHT22;11429;50.842;4.386;2022-08-21T09:42:07;29.40;99.90
22526;DHT22;11429;50.842;4.386;2022-08-21T09:44:37;31.10;99.90
22526;DHT22;11429;50.842;4.386;2022-08-21T09:47:09;30.00;99.90
22526;DHT22;11429;50.842;4.386;2022-08-21T09:49:39;29.30;99.90
22526;DHT22;11429;50.842;4.386;2022-08-21T09:52:22;28.50;99.90
22526;DHT22;11429;50.842;4.386;2022-08-21T09:54:51;28.30;99.90
22526;DHT22;11429;50.842;4.386;2022-08-21T09:57:25;27.40;99.90
22526;DHT22;11429;50.842;4.386;2022-08-21T10:00:20;27.10;99.90
22526;DHT22;11429;50.842;4.386;2022-08-21T10:02:49;26.50;99.90
22526;DHT22;11429;50.842;4.386;2022-08-21T10:05:25;26.50;99.90
22526;DHT22;11429;50.842;4.386;2022-08-21T10:07:52;25.90;99.90
22526;DHT22;11429;50.842;4.386;2022-08-21T10:10:25;25.80;99.90
22526;DHT22;11429;50.842;4.386;2022-08-21T10:18:41;26.10;99.90
22526;DHT22;11429;50.842;4.386;2022-08-21T10:21:23;27.00;99.90
22526;DHT22;11429;50.842;4.386;2022-08-21T10:37:27;28.50;99.90
22526;DHT22;11429;50.842;4.386;2022-08-21T10:48:04;26.60;99.90
22526;DHT22;11429;50.842;4.386;2022-08-21T10:50:42;27.30;99.90
22526;DHT22;11429;50.842;4.386;2022-08-21T10:55:59;26.50;99.90
22526;DHT22;11429;50.842;4.386;2022-08-21T10:58:33;26.10;99.90
22526;DHT22;11429;50.842;4.386;2022-08-21T11:01:15;26.10;99.90
22526;DHT22;11429;50.842;4.386;2022-08-21T11:03:45;26.20;99.90
22526;DHT22;11429;50.842;4.386;2022-08-21T11:06:25;26.60;99.90
22526;DHT22;11429;50.842;4.386;2022-08-21T11:09:09;26.80;99.90
22526;DHT22;11429;50.842;4.386;2022-08-21T11:11:44;27.40;99.90
22526;DHT22;11429;50.842;4.386;2022-08-21T11:14:21;28.70;99.90
22526;DHT22;11429;50.842;4.386;2022-08-21T11:16:57;28.30;99.90
22526;DHT22;11429;50.842;4.386;2022-08-21T11:19:52;27.50;99.90
22526;DHT22;11429;50.842;4.386;2022-08-21T11:22:24;27.10;99.90
22526;DHT22;11429;50.842;4.386;2022-08-21T11:25:10;26.90;99.90
22526;DHT22;11429;50.842;4.386;2022-08-21T11:27:40;27.20;99.90
22526;DHT22;11429;50.842;4.386;2022-08-21T11:30:08;26.70;99.90
22526;DHT22;11429;50.842;4.386;2022-08-21T11:32:55;26.60;99.90
22526;DHT22;11429;50.842;4.386;2022-08-21T11:35:59;26.00;99.90
22526;DHT22;11429;50.842;4.386;2022-08-21T11:38:39;26.20;99.90
22526;DHT22;11429;50.842;4.386;2022-08-21T11:41:32;26.40;99.90
22526;DHT22;11429;50.842;4.386;2022-08-21T11:44:10;26.30;99.90
22526;DHT22;11429;50.842;4.386;2022-08-21T11:52:45;25.50;99.90
22526;DHT22;11429;50.842;4.386;2022-08-21T12:00:54;26.20;99.90
22526;DHT22;11429;50.842;4.386;2022-08-21T12:06:02;26.50;99.90
22526;DHT22;11429;50.842;4.386;2022-08-21T12:08:29;26.60;99.90
22526;DHT22;11429;50.842;4.386;2022-08-21T12:13:36;27.40;99.90
22526;DHT22;11429;50.842;4.386;2022-08-21T12:16:29;27.30;99.90
22526;DHT22;11429;50.842;4.386;2022-08-21T12:19:10;27.80;99.90
22526;DHT22;11429;50.842;4.386;2022-08-21T12:21:59;27.90;99.90
22526;DHT22;11429;50.842;4.386;2022-08-21T12:24:44;27.60;99.90
22526;DHT22;11429;50.842;4.386;2022-08-21T12:27:22;27.70;99.90
22526;DHT22;11429;50.842;4.386;2022-08-21T12:29:58;27.10;99.90
22526;DHT22;11429;50.842;4.386;2022-08-21T12:32:46;27.30;99.90
22526;DHT22;11429;50.842;4.386;2022-08-21T12:35:24;27.20;99.90
22526;DHT22;11429;50.842;4.386;2022-08-21T12:40:28;26.20;99.90
22526;DHT22;11429;50.842;4.386;2022-08-21T12:42:58;25.70;99.90
22526;DHT22;11429;50.842;4.386;2022-08-21T12:45:33;25.70;99.90
22526;DHT22;11429;50.842;4.386;2022-08-21T12:48:20;26.00;99.90
22526;DHT22;11429;50.842;4.386;2022-08-21T12:51:07;26.60;99.90
22526;DHT22;11429;50.842;4.386;2022-08-21T12:53:49;27.40;99.90
22526;DHT22;11429;50.842;4.386;2022-08-21T12:56:17;27.50;99.90
22526;DHT22;11429;50.842;4.386;2022-08-21T12:58:47;27.10;99.90
22526;DHT22;11429;50.842;4.386;2022-08-21T13:01:28;26.80;99.90
22526;DHT22;11429;50.842;4.386;2022-08-21T13:03:56;26.70;99.90
22526;DHT22;11429;50.842;4.386;2022-08-21T13:06:23;26.40;99.90
22526;DHT22;11429;50.842;4.386;2022-08-21T13:08:56;26.30;99.90
22526;DHT22;11429;50.842;4.386;2022-08-21T13:11:23;26.20;99.90
22526;DHT22;11429;50.842;4.386;2022-08-21T13:13:51;26.20;99.90
22526;DHT22;11429;50.842;4.386;2022-08-21T13:16:24;26.40;99.90
22526;DHT22;11429;50.842;4.386;2022-08-21T13:18:55;26.50;99.90
22526;DHT22;11429;50.842;4.386;2022-08-21T13:21:21;27.10;99.90
22526;DHT22;11429;50.842;4.386;2022-08-21T13:23:47;27.00;99.90
22526;DHT22;11429;50.842;4.386;2022-08-21T13:26:19;27.10;99.90
22526;DHT22;11429;50.842;4.386;2022-08-21T13:28:46;27.30;99.90
22526;DHT22;11429;50.842;4.386;2022-08-21T13:31:22;26.90;99.90
22526;DHT22;11429;50.842;4.386;2022-08-21T13:33:50;26.80;99.90
22526;DHT22;11429;50.842;4.386;2022-08-21T13:36:35;26.70;99.90
22526;DHT22;11429;50.842;4.386;2022-08-21T13:39:07;26.20;99.90
22526;DHT22;11429;50.842;4.386;2022-08-21T13:41:35;26.30;99.90
22526;DHT22;11429;50.842;4.386;2022-08-21T13:44:18;26.30;99.90
22526;DHT22;11429;50.842;4.386;2022-08-21T13:46:45;26.10;99.90
22526;DHT22;11429;50.842;4.386;2022-08-21T13:49:14;26.20;99.90
22526;DHT22;11429;50.842;4.386;2022-08-21T13:51:40;25.90;99.90
22526;DHT22;11429;50.842;4.386;2022-08-21T13:56:49;26.10;99.90
22526;DHT22;11429;50.842;4.386;2022-08-21T13:59:35;26.00;99.90
22526;DHT22;11429;50.842;4.386;2022-08-21T14:02:08;25.90;99.90
22526;DHT22;11429;50.842;4.386;2022-08-21T14:04:39;25.90;99.90
22526;DHT22;11429;50.842;4.386;2022-08-21T14:07:19;25.70;99.90
22526;DHT22;11429;50.842;4.386;2022-08-21T14:09:46;25.40;99.90
22526;DHT22;11429;50.842;4.386;2022-08-21T14:12:24;25.40;99.90
22526;DHT22;11429;50.842;4.386;2022-08-21T14:14:51;25.90;99.90
22526;DHT22;11429;50.842;4.386;2022-08-21T14:17:33;25.80;99.90
22526;DHT22;11429;50.842;4.386;2022-08-21T14:20:01;26.00;99.90
22526;DHT22;11429;50.842;4.386;2022-08-21T14:25:01;25.70;99.90
22526;DHT22;11429;50.842;4.386;2022-08-21T14:27:29;25.60;99.90
22526;DHT22;11429;50.842;4.386;2022-08-21T14:29:59;25.60;99.90
22526;DHT22;11429;50.842;4.386;2022-08-21T14:32:27;25.50;99.90
22526;DHT22;11429;50.842;4.386;2022-08-21T14:34:57;25.50;99.90
22526;DHT22;11429;50.842;4.386;2022-08-21T14:37:23;25.30;99.90
22526;DHT22;11429;50.842;4.386;2022-08-21T14:39:50;25.30;99.90
22526;DHT22;11429;50.842;4.386;2022-08-21T14:42:15;25.30;99.90
22526;DHT22;11429;50.842;4.386;2022-08-21T14:44:41;25.60;99.90
22526;DHT22;11429;50.842;4.386;2022-08-21T14:47:08;25.60;99.90
22526;DHT22;11429;50.842;4.386;2022-08-21T14:49:34;25.50;99.90
22526;DHT22;11429;50.842;4.386;2022-08-21T14:52:00;25.60;99.90
22526;DHT22;11429;50.842;4.386;2022-08-21T14:54:28;26.00;99.90
22526;DHT22;11429;50.842;4.386;2022-08-21T14:56:54;25.90;99.90
22526;DHT22;11429;50.842;4.386;2022-08-21T14:59:21;26.10;99.90
22526;DHT22;11429;50.842;4.386;2022-08-21T15:01:47;26.20;99.90
22526;DHT22;11429;50.842;4.386;2022-08-21T15:04:13;26.10;99.90
22526;DHT22;11429;50.842;4.386;2022-08-21T15:06:39;26.00;99.90
22526;DHT22;11429;50.842;4.386;2022-08-21T15:09:05;26.30;99.90
22526;DHT22;11429;50.842;4.386;2022-08-21T15:11:32;26.10;99.90
22526;DHT22;11429;50.842;4.386;2022-08-21T15:14:03;25.80;99.90
22526;DHT22;11429;50.842;4.386;2022-08-21T15:16:29;25.90;99.90
22526;DHT22;11429;50.842;4.386;2022-08-21T15:18:57;25.90;99.90
22526;DHT22;11429;50.842;4.386;2022-08-21T15:21:22;26.30;99.90
22526;DHT22;11429;50.842;4.386;2022-08-21T15:23:48;26.00;99.90
22526;DHT22;11429;50.842;4.386;2022-08-21T15:26:14;25.60;99.90
22526;DHT22;11429;50.842;4.386;2022-08-21T15:28:40;25.60;99.90
22526;DHT22;11429;50.842;4.386;2022-08-21T15:31:06;25.90;99.90
22526;DHT22;11429;50.842;4.386;2022-08-21T15:33:33;26.10;99.90
22526;DHT22;11429;50.842;4.386;2022-08-21T15:35:59;26.30;99.90
22526;DHT22;11429;50.842;4.386;2022-08-21T15:38:25;26.40;99.90
22526;DHT22;11429;50.842;4.386;2022-08-21T15:40:51;26.50;99.90
22526;DHT22;11429;50.842;4.386;2022-08-21T15:43:28;25.90;99.90
22526;DHT22;11429;50.842;4.386;2022-08-21T15:45:55;25.80;99.90
22526;DHT22;11429;50.842;4.386;2022-08-21T15:48:21;25.90;99.90
22526;DHT22;11429;50.842;4.386;2022-08-21T15:50:47;26.30;99.90
22526;DHT22;11429;50.842;4.386;2022-08-21T15:53:13;26.00;99.90
22526;DHT22;11429;50.842;4.386;2022-08-21T15:55:41;26.00;99.90
22526;DHT22;11429;50.842;4.386;2022-08-21T15:58:07;25.70;99.90
22526;DHT22;11429;50.842;4.386;2022-08-21T16:00:37;26.10;99.90
22526;DHT22;11429;50.842;4.386;2022-08-21T16:03:04;26.10;99.90
22526;DHT22;11429;50.842;4.386;2022-08-21T16:05:31;25.70;99.90
22526;DHT22;11429;50.842;4.386;2022-08-21T16:07:57;25.50;99.90
22526;DHT22;11429;50.842;4.386;2022-08-21T16:10:23;25.50;99.90
22526;DHT22;11429;50.842;4.386;2022-08-21T16:12:58;25.40;99.90
22526;DHT22;11429;50.842;4.386;2022-08-21T16:15:26;25.60;99.90
22526;DHT22;11429;50.842;4.386;2022-08-21T16:17:53;25.30;99.90
22526;DHT22;11429;50.842;4.386;2022-08-21T16:20:24;25.20;99.90
22526;DHT22;11429;50.842;4.386;2022-08-21T16:22:50;25.30;99.90
22526;DHT22;11429;50.842;4.386;2022-08-21T16:25:16;25.80;99.90
22526;DHT22;11429;50.842;4.386;2022-08-21T16:27:46;25.70;99.90
22526;DHT22;11429;50.842;4.386;2022-08-21T16:30:14;25.40;99.90
22526;DHT22;11429;50.842;4.386;2022-08-21T16:32:40;25.50;99.90
22526;DHT22;11429;50.842;4.386;2022-08-21T16:35:07;25.60;99.90
22526;DHT22;11429;50.842;4.386;2022-08-21T16:37:35;25.40;99.90
22526;DHT22;11429;50.842;4.386;2022-08-21T16:40:00;25.40;99.90
22526;DHT22;11429;50.842;4.386;2022-08-21T16:42:26;25.00;99.90
22526;DHT22;11429;50.842;4.386;2022-08-21T16:44:53;25.20;99.90
22526;DHT22;11429;50.842;4.386;2022-08-21T16:47:19;25.20;99.90
22526;DHT22;11429;50.842;4.386;2022-08-21T16:49:45;25.30;99.90
22526;DHT22;11429;50.842;4.386;2022-08-21T16:52:11;25.40;99.90
22526;DHT22;11429;50.842;4.386;2022-08-21T16:54:37;25.50;99.90
22526;DHT22;11429;50.842;4.386;2022-08-21T16:57:06;25.10;99.90
22526;DHT22;11429;50.842;4.386;2022-08-21T16:59:32;25.10;99.90